createdAt,value
2018-01-26T00:02:18.101Z,91.60
2018-01-26T00:04:50.429Z,91.60
2018-01-26T00:07:18.519Z,91.00
2018-01-26T00:09:45.709Z,91.10
2018-01-26T00:12:14.149Z,91.50
2018-01-26T00:14:42.344Z,92.30
2018-01-26T00:17:10.040Z,91.70
2018-01-26T00:19:37.873Z,90.40
2018-01-26T00:22:07.449Z,89.00
2018-01-26T00:24:38.009Z,88.20
2018-01-26T00:29:34.020Z,88.70
2018-01-26T00:32:03.966Z,88.20
2018-01-26T00:34:32.374Z,87.40
2018-01-26T00:37:00.050Z,91.10
2018-01-26T00:39:28.018Z,90.60
2018-01-26T00:41:55.629Z,90.80
2018-01-26T00:44:23.330Z,92.60
2018-01-26T00:46:51.990Z,92.20
2018-01-26T00:51:59.013Z,90.90
2018-01-26T00:54:26.630Z,92.40
2018-01-26T00:56:56.054Z,92.00
2018-01-26T00:59:23.734Z,94.50
2018-01-26T01:01:51.370Z,93.90
2018-01-26T01:04:18.983Z,94.50
2018-01-26T01:06:46.658Z,92.90
2018-01-26T01:09:14.276Z,90.90
2018-01-26T01:11:41.891Z,89.80
2018-01-26T01:14:09.566Z,85.60
2018-01-26T01:16:37.182Z,87.30
2018-01-26T01:19:04.794Z,84.80
2018-01-26T01:21:32.466Z,82.80
2018-01-26T01:24:00.119Z,84.70
2018-01-26T01:26:27.744Z,89.80
2018-01-26T01:28:55.415Z,91.20
2018-01-26T01:31:23.036Z,90.80
2018-01-26T01:33:50.657Z,92.70
2018-01-26T01:36:18.321Z,90.30
2018-01-26T01:38:45.941Z,90.70
2018-01-26T01:41:13.569Z,88.80
2018-01-26T01:43:41.254Z,90.10
2018-01-26T01:46:09.816Z,93.80
2018-01-26T01:48:37.448Z,92.90
2018-01-26T01:51:05.105Z,89.60
2018-01-26T01:53:32.729Z,91.10
2018-01-26T01:56:00.353Z,92.00
2018-01-26T01:58:28.047Z,92.70
2018-01-26T02:00:55.674Z,93.60
2018-01-26T02:03:23.284Z,91.00
2018-01-26T02:05:50.993Z,92.50
2018-01-26T02:08:18.989Z,93.30
2018-01-26T02:10:46.606Z,94.00
2018-01-26T02:15:53.372Z,94.10
2018-01-26T02:18:21.042Z,94.50
2018-01-26T02:20:49.616Z,92.90
2018-01-26T02:23:17.238Z,91.70
2018-01-26T02:25:44.921Z,89.50
2018-01-26T02:28:12.545Z,92.80
2018-01-26T02:30:40.161Z,91.30
2018-01-26T02:33:07.837Z,89.40
2018-01-26T02:35:35.457Z,90.30
2018-01-26T02:38:03.082Z,90.20
2018-01-26T02:40:30.751Z,89.40
2018-01-26T02:45:26.954Z,89.00
2018-01-26T02:47:55.394Z,90.50
2018-01-26T02:50:23.009Z,90.80
2018-01-26T02:52:50.627Z,91.60
2018-01-26T02:55:19.201Z,93.90
2018-01-26T02:57:46.758Z,94.00
2018-01-26T03:00:15.334Z,93.50
2018-01-26T03:02:43.884Z,93.20
2018-01-26T03:05:12.364Z,92.20
2018-01-26T03:07:39.977Z,91.20
2018-01-26T03:10:07.645Z,92.00
2018-01-26T03:12:35.266Z,93.60
2018-01-26T03:15:02.883Z,94.00
2018-01-26T03:17:30.580Z,94.30
2018-01-26T03:22:25.819Z,91.90
2018-01-26T03:24:53.491Z,93.20
2018-01-26T03:27:24.620Z,89.50
2018-01-26T03:29:52.236Z,92.10
2018-01-26T03:32:19.921Z,90.30
2018-01-26T03:37:15.150Z,92.00
2018-01-26T03:44:49.627Z,92.70
2018-01-26T03:47:17.242Z,95.10
2018-01-26T03:52:13.475Z,92.70
2018-01-26T03:54:41.082Z,92.50
2018-01-26T03:57:08.694Z,91.60
2018-01-26T03:59:36.390Z,90.90
2018-01-26T04:02:04.019Z,91.30
2018-01-26T04:04:32.926Z,93.20
2018-01-26T04:09:39.320Z,95.80
2018-01-26T04:12:07.030Z,96.00
2018-01-26T04:14:34.643Z,95.40
2018-01-26T04:17:02.260Z,93.90
2018-01-26T04:19:29.948Z,94.90
2018-01-26T04:21:57.562Z,93.20
2018-01-26T04:24:25.184Z,94.80
2018-01-26T04:26:52.863Z,95.30
2018-01-26T04:29:20.480Z,95.40
2018-01-26T04:31:48.097Z,96.00
2018-01-26T04:34:15.774Z,95.60
2018-01-26T04:36:43.394Z,95.90
2018-01-26T04:39:11.019Z,94.50
2018-01-26T04:44:06.321Z,92.30
2018-01-26T04:46:33.940Z,92.80
2018-01-26T04:49:01.640Z,90.40
2018-01-26T04:51:29.256Z,88.30
2018-01-26T04:53:56.887Z,91.40
2018-01-26T04:56:24.570Z,93.00
2018-01-26T04:58:52.186Z,91.80
2018-01-26T05:01:19.809Z,93.90
2018-01-26T05:03:48.367Z,93.80
2018-01-26T05:06:16.833Z,95.10
2018-01-26T05:08:46.786Z,95.70
2018-01-26T05:11:14.461Z,96.70
2018-01-26T05:13:42.078Z,94.60
2018-01-26T05:16:09.702Z,94.50
2018-01-26T05:18:37.370Z,94.60
2018-01-26T05:23:32.617Z,93.50
2018-01-26T05:26:01.178Z,92.30
2018-01-26T05:28:29.745Z,93.10
2018-01-26T05:30:57.361Z,92.50
2018-01-26T05:33:25.038Z,90.00
2018-01-26T05:38:31.797Z,93.60
2018-01-26T05:40:59.414Z,92.60
2018-01-26T05:43:27.047Z,92.80
2018-01-26T05:45:54.742Z,92.10
2018-01-26T05:48:23.244Z,90.20
2018-01-26T05:50:50.857Z,89.20
2018-01-26T05:53:18.531Z,89.60
2018-01-26T05:55:46.142Z,91.20
2018-01-26T05:58:13.773Z,92.70
2018-01-26T06:00:41.448Z,93.10
2018-01-26T06:03:09.061Z,92.40
2018-01-26T06:05:36.680Z,92.70
2018-01-26T06:08:04.378Z,93.20
2018-01-26T06:10:31.993Z,90.70
2018-01-26T06:12:59.608Z,92.30
2018-01-26T06:15:27.289Z,90.80
2018-01-26T06:17:54.906Z,90.70
2018-01-26T06:20:22.537Z,92.10
2018-01-26T06:22:50.204Z,90.20
2018-01-26T06:25:17.822Z,89.70
2018-01-26T06:27:45.459Z,87.40
2018-01-26T06:30:13.160Z,87.20
2018-01-26T06:32:40.764Z,88.00
2018-01-26T06:35:08.386Z,89.50
2018-01-26T06:37:36.067Z,87.00
2018-01-26T06:40:04.517Z,88.70
2018-01-26T06:42:32.233Z,89.70
2018-01-26T06:44:59.914Z,91.20
2018-01-26T06:47:27.529Z,91.90
2018-01-26T06:49:55.156Z,93.30
2018-01-26T06:52:22.856Z,92.50
2018-01-26T06:54:50.479Z,94.00
2018-01-26T06:57:18.094Z,94.00
2018-01-26T07:02:26.098Z,93.90
2018-01-26T07:04:54.686Z,93.30
2018-01-26T07:07:21.403Z,92.60
2018-01-26T07:09:49.744Z,93.10
2018-01-26T07:12:17.803Z,91.40
2018-01-26T07:14:45.900Z,89.80
2018-01-26T07:19:42.034Z,92.70
2018-01-26T07:24:37.271Z,90.80
2018-01-26T07:27:04.945Z,87.10
2018-01-26T07:29:32.572Z,87.70
2018-01-26T07:32:00.187Z,89.80
2018-01-26T07:34:27.868Z,87.30
2018-01-26T07:36:55.486Z,89.30
2018-01-26T07:39:23.096Z,87.30
2018-01-26T07:41:51.089Z,91.00
2018-01-26T07:44:18.723Z,91.40
2018-01-26T07:46:46.344Z,88.20
2018-01-26T07:49:14.033Z,89.60
2018-01-26T07:51:41.654Z,90.50
2018-01-26T07:54:09.269Z,90.90
2018-01-26T07:56:36.942Z,91.60
2018-01-26T08:01:32.178Z,91.30
2018-01-26T08:04:00.623Z,92.70
2018-01-26T08:06:28.243Z,91.40
2018-01-26T08:08:55.867Z,90.00
2018-01-26T08:11:23.553Z,90.70
2018-01-26T08:13:51.175Z,91.10
2018-01-26T08:16:18.791Z,89.10
2018-01-26T08:21:25.898Z,86.40
2018-01-26T08:23:53.567Z,85.60
2018-01-26T08:26:21.186Z,86.10
2018-01-26T08:28:48.816Z,85.10
2018-01-26T08:31:17.287Z,84.10
2018-01-26T08:36:12.531Z,83.70
2018-01-26T08:38:40.208Z,84.60
2018-01-26T08:41:07.836Z,85.30
2018-01-26T08:43:35.454Z,82.70
2018-01-26T08:46:06.096Z,83.60
2018-01-26T08:48:33.700Z,84.90
2018-01-26T08:51:01.316Z,85.30
2018-01-26T08:53:28.993Z,85.20
2018-01-26T08:58:37.816Z,84.50
2018-01-26T09:01:05.426Z,84.00
2018-01-26T09:03:33.045Z,81.20
2018-01-26T09:06:00.718Z,81.80
2018-01-26T09:10:57.158Z,83.00
2018-01-26T09:13:24.831Z,83.10
2018-01-26T09:15:52.446Z,85.00
2018-01-26T09:18:20.089Z,87.40
2018-01-26T09:20:48.767Z,84.60
2018-01-26T09:23:16.380Z,85.70
2018-01-26T09:25:44.005Z,81.40
2018-01-26T09:28:11.674Z,81.90
2018-01-26T09:30:39.286Z,79.80
2018-01-26T09:33:07.860Z,77.40
2018-01-26T09:35:35.576Z,79.30
2018-01-26T09:38:03.191Z,78.90
2018-01-26T09:40:30.827Z,80.60
2018-01-26T09:42:58.515Z,82.10
2018-01-26T09:45:26.133Z,79.80
2018-01-26T09:47:53.755Z,80.00
2018-01-26T09:50:21.429Z,80.10
2018-01-26T09:52:49.054Z,78.30
2018-01-26T09:55:16.691Z,78.50
2018-01-26T09:57:44.369Z,78.40
2018-01-26T10:00:13.016Z,78.70
2018-01-26T10:02:40.604Z,79.10
2018-01-26T10:05:08.301Z,76.50
2018-01-26T10:07:35.923Z,76.00
2018-01-26T10:10:03.542Z,77.40
2018-01-26T10:12:31.225Z,79.30
2018-01-26T10:14:58.838Z,78.20
2018-01-26T10:17:26.491Z,76.70
2018-01-26T10:22:33.746Z,75.80
2018-01-26T10:25:01.420Z,76.30
2018-01-26T10:29:56.720Z,74.30
2018-01-26T10:32:24.359Z,73.80
2018-01-26T10:34:51.983Z,76.00
2018-01-26T10:37:19.592Z,79.20
2018-01-26T10:39:47.274Z,76.60
2018-01-26T10:42:14.882Z,78.50
2018-01-26T10:44:42.584Z,80.00
2018-01-26T10:47:10.180Z,81.60
2018-01-26T10:49:37.787Z,82.00
2018-01-26T10:52:05.423Z,79.70
2018-01-26T10:54:33.110Z,79.00
2018-01-26T10:57:00.733Z,78.30
2018-01-26T10:59:28.691Z,75.50
2018-01-26T11:01:56.353Z,72.40
2018-01-26T11:04:23.977Z,73.20
2018-01-26T11:06:51.601Z,74.70
2018-01-26T11:09:19.280Z,72.90
2018-01-26T11:11:46.919Z,76.00
2018-01-26T11:14:14.544Z,76.90
2018-01-26T11:16:42.228Z,74.80
2018-01-26T11:19:09.848Z,74.80
2018-01-26T11:21:37.480Z,73.30
2018-01-26T11:24:05.155Z,75.50
2018-01-26T11:26:32.779Z,77.10
2018-01-26T11:29:00.395Z,73.90
2018-01-26T11:31:30.751Z,76.30
2018-01-26T11:33:58.393Z,77.40
2018-01-26T11:36:26.023Z,74.90
2018-01-26T11:38:53.688Z,76.30
2018-01-26T11:43:48.968Z,76.00
2018-01-26T11:48:58.510Z,74.60
2018-01-26T11:51:26.183Z,72.70
2018-01-26T11:53:53.814Z,71.80
2018-01-26T11:56:21.433Z,72.80
2018-01-26T11:58:49.115Z,73.30
2018-01-26T12:01:16.740Z,69.10
2018-01-26T12:03:44.757Z,65.00
2018-01-26T12:06:12.532Z,65.90
2018-01-26T12:08:40.158Z,64.50
2018-01-26T12:11:07.780Z,59.60
2018-01-26T12:13:35.465Z,57.80
2018-01-26T12:16:03.092Z,60.10
2018-01-26T12:18:30.719Z,56.20
2018-01-26T12:20:58.405Z,56.30
2018-01-26T12:23:26.488Z,55.80
2018-01-26T12:25:54.117Z,55.30
2018-01-26T12:28:21.798Z,54.10
2018-01-26T12:30:49.429Z,53.90
2018-01-26T12:33:17.044Z,53.70
2018-01-26T12:35:44.716Z,52.90
2018-01-26T12:38:12.368Z,52.70
2018-01-26T12:40:39.980Z,50.10
2018-01-26T12:43:07.676Z,50.20
2018-01-26T12:45:35.295Z,51.10
2018-01-26T12:48:02.918Z,50.80
2018-01-26T12:50:30.610Z,51.30
2018-01-26T12:53:06.031Z,50.20
2018-01-26T12:55:34.156Z,49.20
2018-01-26T12:58:01.805Z,47.00
2018-01-26T13:00:29.426Z,47.30
2018-01-26T13:02:57.134Z,47.90
2018-01-26T13:05:24.769Z,49.50
2018-01-26T13:07:52.392Z,48.90
2018-01-26T13:13:01.237Z,49.20
2018-01-26T13:15:28.902Z,51.40
2018-01-26T13:17:56.530Z,50.40
2018-01-26T13:20:24.967Z,50.10
2018-01-26T13:22:52.651Z,50.70
2018-01-26T13:25:20.270Z,51.80
2018-01-26T13:27:47.891Z,50.70
2018-01-26T13:30:15.589Z,48.20
2018-01-26T13:35:10.868Z,51.20
2018-01-26T13:37:38.694Z,51.10
2018-01-26T13:40:06.421Z,51.10
2018-01-26T13:42:35.012Z,49.20
2018-01-26T13:47:30.363Z,45.90
2018-01-26T13:49:58.052Z,45.10
2018-01-26T13:52:25.675Z,45.80
2018-01-26T13:54:53.294Z,47.40
2018-01-26T13:57:20.915Z,48.80
2018-01-26T13:59:48.623Z,46.60
2018-01-26T14:02:16.243Z,44.90
2018-01-26T14:04:43.872Z,43.00
2018-01-26T14:07:11.584Z,42.40
2018-01-26T14:09:39.250Z,42.50
2018-01-26T14:12:07.175Z,43.20
2018-01-26T14:14:34.847Z,42.10
2018-01-26T14:17:02.464Z,42.30
2018-01-26T14:21:57.759Z,43.20
2018-01-26T14:24:25.398Z,43.40
2018-01-26T14:26:53.031Z,43.90
2018-01-26T14:29:20.710Z,42.80
2018-01-26T14:31:48.335Z,43.30
2018-01-26T14:34:15.972Z,42.70
2018-01-26T14:39:22.747Z,42.60
2018-01-26T14:41:50.459Z,42.10
2018-01-26T14:44:18.118Z,41.70
2018-01-26T14:46:45.782Z,42.20
2018-01-26T14:49:13.678Z,41.40
2018-01-26T14:51:41.342Z,43.60
2018-01-26T14:54:09.108Z,44.00
2018-01-26T14:56:36.790Z,41.80
2018-01-26T14:59:04.405Z,42.90
2018-01-26T15:01:32.033Z,41.90
2018-01-26T15:06:27.357Z,43.00
2018-01-26T15:08:55.127Z,49.20
2018-01-26T15:11:22.836Z,51.00
2018-01-26T15:13:50.474Z,52.00
2018-01-26T15:16:18.095Z,49.50
2018-01-26T15:18:45.770Z,51.40
2018-01-26T15:21:13.408Z,51.10
2018-01-26T15:23:41.040Z,50.70
2018-01-26T15:26:08.780Z,52.00
2018-01-26T15:28:36.424Z,50.70
2018-01-26T15:31:04.059Z,49.70
2018-01-26T15:33:31.761Z,49.80
2018-01-26T15:35:59.392Z,50.30
2018-01-26T15:38:27.022Z,48.20
2018-01-26T15:40:54.745Z,48.60
2018-01-26T15:43:22.380Z,46.50
2018-01-26T15:45:50.024Z,47.10
2018-01-26T15:48:17.726Z,46.80
2018-01-26T15:50:45.355Z,42.90
2018-01-26T15:55:52.162Z,44.50
2018-01-26T15:58:19.819Z,44.20
2018-01-26T16:00:47.460Z,42.70
2018-01-26T16:03:15.159Z,41.80
2018-01-26T16:05:42.786Z,43.50
2018-01-26T16:08:10.418Z,43.70
2018-01-26T16:10:38.105Z,45.00
2018-01-26T16:13:05.763Z,45.60
2018-01-26T16:15:33.398Z,45.60
2018-01-26T16:18:01.134Z,46.50
2018-01-26T16:20:28.737Z,45.00
2018-01-26T16:25:24.908Z,43.10
2018-01-26T16:27:53.388Z,44.10
2018-01-26T16:30:21.015Z,44.10
2018-01-26T16:35:16.341Z,44.30
2018-01-26T16:37:43.979Z,45.30
2018-01-26T16:40:11.685Z,45.50
2018-01-26T16:42:39.322Z,46.00
2018-01-26T16:45:06.942Z,46.30
2018-01-26T16:47:34.631Z,47.70
2018-01-26T16:50:02.256Z,47.70
2018-01-26T16:52:29.874Z,46.20
2018-01-26T16:54:57.540Z,46.00
2018-01-26T16:57:25.160Z,45.70
2018-01-26T17:02:20.937Z,53.00
2018-01-26T17:04:48.568Z,52.10
2018-01-26T17:07:16.188Z,52.70
2018-01-26T17:09:43.865Z,52.50
2018-01-26T17:12:11.507Z,49.60
2018-01-26T17:14:39.126Z,50.00
2018-01-26T17:19:45.934Z,49.40
2018-01-26T17:22:13.586Z,51.10
2018-01-26T17:24:41.201Z,49.80
2018-01-26T17:27:08.816Z,56.50
2018-01-26T17:29:36.539Z,57.30
2018-01-26T17:32:04.159Z,57.90
2018-01-26T17:34:31.796Z,58.20
2018-01-26T17:37:00.445Z,59.80
2018-01-26T17:39:28.920Z,61.70
2018-01-26T17:44:25.171Z,57.20
2018-01-26T17:46:52.807Z,57.40
2018-01-26T17:49:20.376Z,60.30
2018-01-26T17:51:48.056Z,60.30
2018-01-26T17:54:16.540Z,58.40
2018-01-26T17:56:44.170Z,60.70
2018-01-26T17:59:12.686Z,62.50
2018-01-26T18:01:40.309Z,63.40
2018-01-26T18:04:07.939Z,62.90
2018-01-26T18:06:35.618Z,67.60
2018-01-26T18:09:03.240Z,67.80
2018-01-26T18:11:30.863Z,69.20
2018-01-26T18:14:01.526Z,70.50
2018-01-26T18:16:29.160Z,68.30
2018-01-26T18:18:58.982Z,70.30
2018-01-26T18:21:26.647Z,70.90
2018-01-26T18:23:54.301Z,69.10
2018-01-26T18:26:21.926Z,66.90
2018-01-26T18:28:49.599Z,68.00
2018-01-26T18:33:45.686Z,66.70
2018-01-26T18:38:52.464Z,69.10
2018-01-26T18:41:20.135Z,71.60
2018-01-26T18:43:47.806Z,70.90
2018-01-26T18:46:15.476Z,68.60
2018-01-26T18:48:43.173Z,65.20
2018-01-26T18:51:10.807Z,73.30
2018-01-26T18:53:38.442Z,72.70
2018-01-26T18:56:06.114Z,71.50
2018-01-26T18:58:33.763Z,74.10
2018-01-26T19:01:01.375Z,74.70
2018-01-26T19:03:29.075Z,72.90
2018-01-26T19:05:56.701Z,75.00
2018-01-26T19:08:25.127Z,72.70
2018-01-26T19:10:53.755Z,75.30
2018-01-26T19:13:21.367Z,74.60
2018-01-26T19:15:49.001Z,73.60
2018-01-26T19:18:16.683Z,74.30
2018-01-26T19:20:44.321Z,78.40
2018-01-26T19:23:12.135Z,77.80
2018-01-26T19:25:39.786Z,80.80
2018-01-26T19:28:07.417Z,69.20
2018-01-26T19:30:35.057Z,78.60
2018-01-26T19:33:02.746Z,79.90
2018-01-26T19:35:30.385Z,79.20
2018-01-26T19:37:58.021Z,77.40
2018-01-26T19:40:25.737Z,80.30
2018-01-26T19:42:53.359Z,79.20
2018-01-26T19:45:20.989Z,82.20
2018-01-26T19:47:48.676Z,81.10
2018-01-26T19:50:16.398Z,82.30
2018-01-26T19:55:23.204Z,81.20
2018-01-26T19:57:50.829Z,79.30
2018-01-26T20:00:18.991Z,78.20
2018-01-26T20:02:46.719Z,82.80
2018-01-26T20:05:31.913Z,82.60
2018-01-26T20:10:48.882Z,78.70
2018-01-26T20:13:22.058Z,78.20
2018-01-26T20:15:49.746Z,79.00
2018-01-26T20:18:17.365Z,80.00
2018-01-26T20:20:44.994Z,81.20
2018-01-26T20:23:12.662Z,80.10
2018-01-26T20:25:40.289Z,80.30
2018-01-26T20:28:07.910Z,81.00
2018-01-26T20:30:35.777Z,81.70
2018-01-26T20:33:03.311Z,80.10
2018-01-26T20:35:30.939Z,80.50
2018-01-26T20:40:26.313Z,86.30
2018-01-26T20:42:53.862Z,86.10
2018-01-26T20:45:21.564Z,88.00
2018-01-26T20:47:49.204Z,87.00
2018-01-26T20:50:16.858Z,84.50
2018-01-26T20:52:44.561Z,85.40
2018-01-26T20:55:12.211Z,86.70
2018-01-26T20:57:39.851Z,87.00
2018-01-26T21:00:07.527Z,87.50
2018-01-26T21:02:35.173Z,84.60
2018-01-26T21:05:02.889Z,87.50
2018-01-26T21:07:31.447Z,87.30
2018-01-26T21:09:59.197Z,89.90
2018-01-26T21:12:26.848Z,90.80
2018-01-26T21:14:54.569Z,89.40
2018-01-26T21:19:49.785Z,90.90
2018-01-26T21:22:17.459Z,88.40
2018-01-26T21:24:45.111Z,87.00
2018-01-26T21:29:53.354Z,86.70
2018-01-26T21:32:20.964Z,86.40
2018-01-26T21:34:48.624Z,86.20
2018-01-26T21:37:16.300Z,84.90
2018-01-26T21:39:43.926Z,87.80
2018-01-26T21:42:11.540Z,88.00
2018-01-26T21:44:39.239Z,86.90
2018-01-26T21:47:06.869Z,87.80
2018-01-26T21:49:34.477Z,89.30
2018-01-26T21:54:29.826Z,88.30
2018-01-26T21:56:57.754Z,88.30
2018-01-26T21:59:25.412Z,88.70
2018-01-26T22:01:53.016Z,88.10
2018-01-26T22:04:22.579Z,88.70
2018-01-26T22:06:55.956Z,90.60
2018-01-26T22:09:24.338Z,89.40
2018-01-26T22:11:51.944Z,88.90
2018-01-26T22:14:19.620Z,88.90
2018-01-26T22:16:51.114Z,88.60
2018-01-26T22:19:15.658Z,88.30
2018-01-26T22:21:43.342Z,87.90
2018-01-26T22:24:10.966Z,88.90
2018-01-26T22:26:38.595Z,88.60
2018-01-26T22:31:34.193Z,89.60
2018-01-26T22:34:01.803Z,89.60
2018-01-26T22:36:29.479Z,89.90
2018-01-26T22:38:57.103Z,89.40
2018-01-26T22:43:53.765Z,88.20
2018-01-26T22:46:21.389Z,88.90
2018-01-26T22:48:49.025Z,90.20
2018-01-26T22:51:16.698Z,90.20
2018-01-26T22:56:23.458Z,89.40
2018-01-26T22:58:51.086Z,90.30
2018-01-26T23:03:46.430Z,90.30
2018-01-26T23:06:14.042Z,90.10
2018-01-26T23:08:41.672Z,92.70
2018-01-26T23:11:09.343Z,88.80
2018-01-26T23:13:36.972Z,89.20
2018-01-26T23:16:04.593Z,90.20
2018-01-26T23:18:32.288Z,89.50
2018-01-26T23:20:59.906Z,91.20
2018-01-26T23:23:27.569Z,91.20
2018-01-26T23:25:58.486Z,89.50
2018-01-26T23:28:26.891Z,88.60
2018-01-26T23:30:56.159Z,88.60
2018-01-26T23:33:25.241Z,89.60
2018-01-26T23:35:52.869Z,90.80
2018-01-26T23:38:20.519Z,92.30
2018-01-26T23:40:48.236Z,92.30
2018-01-26T23:43:15.857Z,91.80
2018-01-26T23:45:44.182Z,91.40
2018-01-26T23:48:11.858Z,90.80
2018-01-26T23:50:39.479Z,90.60
2018-01-26T23:53:07.953Z,89.90
2018-01-26T23:55:36.146Z,91.20
2018-01-26T23:58:03.809Z,89.90
